sensor_id;sensor_type;location;lat;lon;timestamp;P1;durP1;ratioP1;P2;durP2;ratioP2
1410;SDS011;700;51.906;8.404;2023-03-01T00:01:57;12.03;;;8.00;;
1410;SDS011;700;51.906;8.404;2023-03-01T00:06:57;9.50;;;6.97;;
1410;SDS011;700;51.906;8.404;2023-03-01T00:12:00;10.53;;;7.93;;
1410;SDS011;700;51.906;8.404;2023-03-01T00:17:01;12.20;;;7.70;;
1410;SDS011;700;51.906;8.404;2023-03-01T00:22:02;9.00;;;6.90;;
1410;SDS011;700;51.906;8.404;2023-03-01T00:27:02;11.63;;;8.30;;
1410;SDS011;700;51.906;8.404;2023-03-01T00:32:03;10.03;;;7.73;;
1410;SDS011;700;51.906;8.404;2023-03-01T00:37:04;11.80;;;8.50;;
1410;SDS011;700;51.906;8.404;2023-03-01T00:42:07;10.93;;;7.60;;
1410;SDS011;700;51.906;8.404;2023-03-01T00:47:07;11.77;;;8.60;;
1410;SDS011;700;51.906;8.404;2023-03-01T00:52:08;10.77;;;8.20;;
1410;SDS011;700;51.906;8.404;2023-03-01T00:57:11;11.63;;;7.50;;
1410;SDS011;700;51.906;8.404;2023-03-01T01:02:12;14.93;;;8.60;;
1410;SDS011;700;51.906;8.404;2023-03-01T01:07:13;10.07;;;7.80;;
1410;SDS011;700;51.906;8.404;2023-03-01T01:12:16;10.43;;;7.33;;
1410;SDS011;700;51.906;8.404;2023-03-01T01:17:17;10.20;;;7.27;;
1410;SDS011;700;51.906;8.404;2023-03-01T01:22:18;11.23;;;7.30;;
1410;SDS011;700;51.906;8.404;2023-03-01T01:27:18;9.50;;;7.23;;
1410;SDS011;700;51.906;8.404;2023-03-01T01:32:21;9.30;;;7.10;;
1410;SDS011;700;51.906;8.404;2023-03-01T01:37:22;7.63;;;5.90;;
1410;SDS011;700;51.906;8.404;2023-03-01T01:42:22;11.50;;;6.80;;
1410;SDS011;700;51.906;8.404;2023-03-01T01:47:23;9.20;;;6.87;;
1410;SDS011;700;51.906;8.404;2023-03-01T01:52:25;9.07;;;5.80;;
1410;SDS011;700;51.906;8.404;2023-03-01T01:57:32;9.13;;;6.33;;
1410;SDS011;700;51.906;8.404;2023-03-01T02:02:39;10.40;;;6.93;;
1410;SDS011;700;51.906;8.404;2023-03-01T02:07:42;8.87;;;5.67;;
1410;SDS011;700;51.906;8.404;2023-03-01T02:12:46;7.50;;;6.37;;
1410;SDS011;700;51.906;8.404;2023-03-01T02:17:47;10.70;;;7.07;;
1410;SDS011;700;51.906;8.404;2023-03-01T02:22:48;11.43;;;6.83;;
1410;SDS011;700;51.906;8.404;2023-03-01T02:32:58;10.80;;;6.83;;
1410;SDS011;700;51.906;8.404;2023-03-01T02:38:06;8.17;;;6.47;;
1410;SDS011;700;51.906;8.404;2023-03-01T02:43:08;7.53;;;6.30;;
1410;SDS011;700;51.906;8.404;2023-03-01T02:48:11;8.30;;;6.33;;
1410;SDS011;700;51.906;8.404;2023-03-01T02:53:16;10.73;;;7.37;;
1410;SDS011;700;51.906;8.404;2023-03-01T02:58:27;10.00;;;6.90;;
1410;SDS011;700;51.906;8.404;2023-03-01T03:03:30;10.57;;;7.63;;
1410;SDS011;700;51.906;8.404;2023-03-01T03:08:31;9.63;;;6.33;;
1410;SDS011;700;51.906;8.404;2023-03-01T03:13:32;10.67;;;6.67;;
1410;SDS011;700;51.906;8.404;2023-03-01T03:18:35;9.27;;;6.97;;
1410;SDS011;700;51.906;8.404;2023-03-01T03:23:35;11.30;;;6.43;;
1410;SDS011;700;51.906;8.404;2023-03-01T03:28:36;8.90;;;6.73;;
1410;SDS011;700;51.906;8.404;2023-03-01T03:33:39;9.37;;;6.80;;
1410;SDS011;700;51.906;8.404;2023-03-01T03:38:42;10.47;;;7.63;;
1410;SDS011;700;51.906;8.404;2023-03-01T03:43:43;9.40;;;7.60;;
1410;SDS011;700;51.906;8.404;2023-03-01T03:48:44;7.97;;;6.60;;
1410;SDS011;700;51.906;8.404;2023-03-01T03:53:45;10.43;;;7.97;;
1410;SDS011;700;51.906;8.404;2023-03-01T03:58:48;10.97;;;8.27;;
1410;SDS011;700;51.906;8.404;2023-03-01T04:03:49;10.43;;;7.37;;
1410;SDS011;700;51.906;8.404;2023-03-01T04:08:56;9.07;;;7.67;;
1410;SDS011;700;51.906;8.404;2023-03-01T04:13:58;10.87;;;8.40;;
1410;SDS011;700;51.906;8.404;2023-03-01T04:19:00;9.77;;;8.20;;
1410;SDS011;700;51.906;8.404;2023-03-01T04:24:00;13.60;;;9.03;;
1410;SDS011;700;51.906;8.404;2023-03-01T04:29:06;12.07;;;9.37;;
1410;SDS011;700;51.906;8.404;2023-03-01T04:34:07;10.10;;;8.27;;
1410;SDS011;700;51.906;8.404;2023-03-01T04:39:07;12.83;;;9.47;;
1410;SDS011;700;51.906;8.404;2023-03-01T04:44:12;13.83;;;8.73;;
1410;SDS011;700;51.906;8.404;2023-03-01T04:49:12;14.73;;;9.27;;
1410;SDS011;700;51.906;8.404;2023-03-01T04:54:13;12.70;;;9.13;;
1410;SDS011;700;51.906;8.404;2023-03-01T04:59:16;12.30;;;9.20;;
1410;SDS011;700;51.906;8.404;2023-03-01T05:04:16;12.97;;;10.00;;
1410;SDS011;700;51.906;8.404;2023-03-01T05:09:17;15.13;;;10.03;;
1410;SDS011;700;51.906;8.404;2023-03-01T05:14:18;10.60;;;8.53;;
1410;SDS011;700;51.906;8.404;2023-03-01T05:19:24;13.20;;;10.03;;
1410;SDS011;700;51.906;8.404;2023-03-01T05:24:27;11.30;;;8.63;;
1410;SDS011;700;51.906;8.404;2023-03-01T05:29:31;13.47;;;9.27;;
1410;SDS011;700;51.906;8.404;2023-03-01T05:34:35;11.77;;;8.80;;
1410;SDS011;700;51.906;8.404;2023-03-01T05:39:36;13.63;;;9.50;;
1410;SDS011;700;51.906;8.404;2023-03-01T05:44:39;14.20;;;10.33;;
1410;SDS011;700;51.906;8.404;2023-03-01T05:49:40;15.37;;;11.37;;
1410;SDS011;700;51.906;8.404;2023-03-01T05:54:45;15.17;;;8.73;;
1410;SDS011;700;51.906;8.404;2023-03-01T05:59:50;13.20;;;9.40;;
1410;SDS011;700;51.906;8.404;2023-03-01T06:04:51;14.13;;;10.27;;
1410;SDS011;700;51.906;8.404;2023-03-01T06:09:56;12.83;;;9.03;;
1410;SDS011;700;51.906;8.404;2023-03-01T06:15:00;14.53;;;10.67;;
1410;SDS011;700;51.906;8.404;2023-03-01T06:20:01;12.70;;;10.13;;
1410;SDS011;700;51.906;8.404;2023-03-01T06:25:04;15.20;;;10.60;;
1410;SDS011;700;51.906;8.404;2023-03-01T06:30:05;13.23;;;8.27;;
1410;SDS011;700;51.906;8.404;2023-03-01T06:35:10;14.67;;;10.63;;
1410;SDS011;700;51.906;8.404;2023-03-01T06:40:11;12.03;;;9.67;;
1410;SDS011;700;51.906;8.404;2023-03-01T06:45:16;14.03;;;10.23;;
1410;SDS011;700;51.906;8.404;2023-03-01T06:50:18;17.60;;;11.20;;
1410;SDS011;700;51.906;8.404;2023-03-01T06:55:19;13.30;;;9.50;;
1410;SDS011;700;51.906;8.404;2023-03-01T07:00:20;17.17;;;10.50;;
1410;SDS011;700;51.906;8.404;2023-03-01T07:05:25;13.70;;;10.30;;
1410;SDS011;700;51.906;8.404;2023-03-01T07:10:28;14.10;;;9.80;;
1410;SDS011;700;51.906;8.404;2023-03-01T07:15:28;13.83;;;9.80;;
1410;SDS011;700;51.906;8.404;2023-03-01T07:20:29;15.23;;;9.17;;
1410;SDS011;700;51.906;8.404;2023-03-01T07:25:30;12.30;;;9.67;;
1410;SDS011;700;51.906;8.404;2023-03-01T07:30:33;17.53;;;9.27;;
1410;SDS011;700;51.906;8.404;2023-03-01T07:35:36;12.33;;;9.57;;
1410;SDS011;700;51.906;8.404;2023-03-01T07:40:41;19.40;;;10.47;;
1410;SDS011;700;51.906;8.404;2023-03-01T07:45:42;12.33;;;9.30;;
1410;SDS011;700;51.906;8.404;2023-03-01T07:50:43;11.00;;;9.70;;
1410;SDS011;700;51.906;8.404;2023-03-01T07:55:43;11.33;;;9.50;;
1410;SDS011;700;51.906;8.404;2023-03-01T08:00:47;16.10;;;12.97;;
1410;SDS011;700;51.906;8.404;2023-03-01T08:05:47;11.00;;;8.63;;
1410;SDS011;700;51.906;8.404;2023-03-01T08:10:48;10.33;;;8.17;;
1410;SDS011;700;51.906;8.404;2023-03-01T08:15:51;10.40;;;9.30;;
1410;SDS011;700;51.906;8.404;2023-03-01T08:20:52;9.50;;;8.10;;
1410;SDS011;700;51.906;8.404;2023-03-01T08:25:52;9.20;;;8.30;;
1410;SDS011;700;51.906;8.404;2023-03-01T08:30:53;10.27;;;8.50;;
1410;SDS011;700;51.906;8.404;2023-03-01T08:36:05;9.40;;;8.50;;
1410;SDS011;700;51.906;8.404;2023-03-01T08:41:09;9.50;;;8.50;;
1410;SDS011;700;51.906;8.404;2023-03-01T08:46:12;9.50;;;8.30;;
1410;SDS011;700;51.906;8.404;2023-03-01T08:51:14;8.33;;;7.53;;
1410;SDS011;700;51.906;8.404;2023-03-01T08:56:19;9.87;;;8.07;;
1410;SDS011;700;51.906;8.404;2023-03-01T09:01:19;7.40;;;6.70;;
1410;SDS011;700;51.906;8.404;2023-03-01T09:06:23;8.37;;;7.17;;
1410;SDS011;700;51.906;8.404;2023-03-01T09:11:26;7.93;;;7.13;;
1410;SDS011;700;51.906;8.404;2023-03-01T09:16:28;7.40;;;6.70;;
1410;SDS011;700;51.906;8.404;2023-03-01T09:21:29;7.50;;;6.70;;
1410;SDS011;700;51.906;8.404;2023-03-01T09:26:35;7.83;;;7.13;;
1410;SDS011;700;51.906;8.404;2023-03-01T09:31:38;8.40;;;7.70;;
1410;SDS011;700;51.906;8.404;2023-03-01T09:36:39;7.73;;;6.60;;
1410;SDS011;700;51.906;8.404;2023-03-01T09:46:49;7.27;;;6.57;;
1410;SDS011;700;51.906;8.404;2023-03-01T09:51:58;7.87;;;7.10;;
1410;SDS011;700;51.906;8.404;2023-03-01T09:57:17;6.70;;;6.10;;
1410;SDS011;700;51.906;8.404;2023-03-01T10:12:53;6.87;;;6.27;;
1410;SDS011;700;51.906;8.404;2023-03-01T10:18:00;6.90;;;6.30;;
1410;SDS011;700;51.906;8.404;2023-03-01T10:23:12;8.33;;;7.33;;
1410;SDS011;700;51.906;8.404;2023-03-01T10:28:34;6.93;;;6.23;;
1410;SDS011;700;51.906;8.404;2023-03-01T10:33:37;8.67;;;6.33;;
1410;SDS011;700;51.906;8.404;2023-03-01T10:38:52;7.23;;;6.53;;
1410;SDS011;700;51.906;8.404;2023-03-01T10:43:58;6.93;;;6.33;;
1410;SDS011;700;51.906;8.404;2023-03-01T10:54:29;7.10;;;6.40;;
1410;SDS011;700;51.906;8.404;2023-03-01T10:59:32;7.63;;;6.93;;
1410;SDS011;700;51.906;8.404;2023-03-01T11:04:38;6.70;;;6.10;;
1410;SDS011;700;51.906;8.404;2023-03-01T11:09:39;6.32;;;5.72;;
1410;SDS011;700;51.906;8.404;2023-03-01T11:14:48;8.17;;;6.77;;
1410;SDS011;700;51.906;8.404;2023-03-01T11:20:02;7.30;;;6.60;;
1410;SDS011;700;51.906;8.404;2023-03-01T11:25:13;7.07;;;6.37;;
1410;SDS011;700;51.906;8.404;2023-03-01T11:35:25;10.87;;;5.93;;
1410;SDS011;700;51.906;8.404;2023-03-01T11:40:29;5.83;;;5.23;;
1410;SDS011;700;51.906;8.404;2023-03-01T11:51:09;8.63;;;5.80;;
1410;SDS011;700;51.906;8.404;2023-03-01T11:56:18;6.73;;;5.50;;
1410;SDS011;700;51.906;8.404;2023-03-01T12:12:31;7.20;;;5.00;;
1410;SDS011;700;51.906;8.404;2023-03-01T12:18:25;6.30;;;5.07;;
1410;SDS011;700;51.906;8.404;2023-03-01T12:49:55;6.20;;;5.03;;
1410;SDS011;700;51.906;8.404;2023-03-01T12:55:02;6.67;;;5.57;;
1410;SDS011;700;51.906;8.404;2023-03-01T13:05:27;6.23;;;5.13;;
1410;SDS011;700;51.906;8.404;2023-03-01T13:10:42;6.03;;;4.90;;
1410;SDS011;700;51.906;8.404;2023-03-01T13:15:51;6.03;;;5.03;;
1410;SDS011;700;51.906;8.404;2023-03-01T13:20:53;5.40;;;4.90;;
1410;SDS011;700;51.906;8.404;2023-03-01T13:46:43;7.13;;;4.67;;
1410;SDS011;700;51.906;8.404;2023-03-01T13:51:48;5.17;;;4.67;;
1410;SDS011;700;51.906;8.404;2023-03-01T13:56:53;6.63;;;4.83;;
1410;SDS011;700;51.906;8.404;2023-03-01T14:01:58;7.17;;;5.00;;
1410;SDS011;700;51.906;8.404;2023-03-01T14:07:12;6.53;;;4.80;;
1410;SDS011;700;51.906;8.404;2023-03-01T14:12:34;5.13;;;4.63;;
1410;SDS011;700;51.906;8.404;2023-03-01T14:23:23;5.90;;;4.60;;
1410;SDS011;700;51.906;8.404;2023-03-01T14:28:25;6.20;;;5.17;;
1410;SDS011;700;51.906;8.404;2023-03-01T14:33:31;4.93;;;4.40;;
1410;SDS011;700;51.906;8.404;2023-03-01T14:43:39;5.50;;;4.33;;
1410;SDS011;700;51.906;8.404;2023-03-01T14:48:44;5.50;;;4.70;;
1410;SDS011;700;51.906;8.404;2023-03-01T14:53:47;4.90;;;4.40;;
1410;SDS011;700;51.906;8.404;2023-03-01T14:58:53;5.00;;;3.90;;
1410;SDS011;700;51.906;8.404;2023-03-01T15:04:01;4.70;;;3.63;;
1410;SDS011;700;51.906;8.404;2023-03-01T15:09:05;4.10;;;3.30;;
1410;SDS011;700;51.906;8.404;2023-03-01T15:14:38;5.23;;;3.93;;
1410;SDS011;700;51.906;8.404;2023-03-01T15:19:41;7.10;;;4.23;;
1410;SDS011;700;51.906;8.404;2023-03-01T15:24:45;4.97;;;4.10;;
1410;SDS011;700;51.906;8.404;2023-03-01T15:29:52;4.67;;;4.03;;
1410;SDS011;700;51.906;8.404;2023-03-01T15:34:56;5.13;;;4.20;;
1410;SDS011;700;51.906;8.404;2023-03-01T15:39:58;5.87;;;5.00;;
1410;SDS011;700;51.906;8.404;2023-03-01T15:45:11;5.83;;;3.77;;
1410;SDS011;700;51.906;8.404;2023-03-01T15:50:25;4.73;;;4.03;;
1410;SDS011;700;51.906;8.404;2023-03-01T15:55:33;5.13;;;4.00;;
1410;SDS011;700;51.906;8.404;2023-03-01T16:00:34;6.03;;;4.37;;
1410;SDS011;700;51.906;8.404;2023-03-01T16:05:35;7.80;;;5.07;;
1410;SDS011;700;51.906;8.404;2023-03-01T16:10:36;7.10;;;6.00;;
1410;SDS011;700;51.906;8.404;2023-03-01T16:15:37;5.03;;;4.10;;
1410;SDS011;700;51.906;8.404;2023-03-01T16:20:41;7.30;;;5.40;;
1410;SDS011;700;51.906;8.404;2023-03-01T16:25:42;6.23;;;4.33;;
1410;SDS011;700;51.906;8.404;2023-03-01T16:30:45;6.90;;;4.80;;
1410;SDS011;700;51.906;8.404;2023-03-01T16:35:50;5.93;;;4.37;;
1410;SDS011;700;51.906;8.404;2023-03-01T16:40:53;7.60;;;4.53;;
1410;SDS011;700;51.906;8.404;2023-03-01T16:45:54;7.37;;;5.07;;
1410;SDS011;700;51.906;8.404;2023-03-01T16:50:55;7.90;;;5.73;;
1410;SDS011;700;51.906;8.404;2023-03-01T16:56:02;6.47;;;5.07;;
1410;SDS011;700;51.906;8.404;2023-03-01T17:01:09;6.87;;;4.80;;
1410;SDS011;700;51.906;8.404;2023-03-01T17:06:11;7.60;;;4.77;;
1410;SDS011;700;51.906;8.404;2023-03-01T17:11:17;7.13;;;4.30;;
1410;SDS011;700;51.906;8.404;2023-03-01T17:16:20;7.80;;;4.70;;
1410;SDS011;700;51.906;8.404;2023-03-01T17:21:20;9.57;;;5.43;;
1410;SDS011;700;51.906;8.404;2023-03-01T17:26:21;7.10;;;5.00;;
1410;SDS011;700;51.906;8.404;2023-03-01T17:31:22;7.30;;;5.40;;
1410;SDS011;700;51.906;8.404;2023-03-01T17:36:25;13.33;;;5.90;;
1410;SDS011;700;51.906;8.404;2023-03-01T17:41:25;7.70;;;4.70;;
1410;SDS011;700;51.906;8.404;2023-03-01T17:46:31;6.20;;;4.67;;
1410;SDS011;700;51.906;8.404;2023-03-01T17:51:31;7.30;;;4.07;;
1410;SDS011;700;51.906;8.404;2023-03-01T17:56:34;7.47;;;5.00;;
1410;SDS011;700;51.906;8.404;2023-03-01T18:01:40;8.00;;;4.90;;
1410;SDS011;700;51.906;8.404;2023-03-01T18:06:41;7.30;;;5.33;;
1410;SDS011;700;51.906;8.404;2023-03-01T18:11:46;11.30;;;5.80;;
1410;SDS011;700;51.906;8.404;2023-03-01T18:16:47;8.97;;;5.90;;
1410;SDS011;700;51.906;8.404;2023-03-01T18:21:50;8.60;;;5.87;;
1410;SDS011;700;51.906;8.404;2023-03-01T18:26:50;8.60;;;6.20;;
1410;SDS011;700;51.906;8.404;2023-03-01T18:31:51;8.30;;;6.57;;
1410;SDS011;700;51.906;8.404;2023-03-01T18:36:54;13.33;;;6.97;;
1410;SDS011;700;51.906;8.404;2023-03-01T18:41:57;11.63;;;7.93;;
1410;SDS011;700;51.906;8.404;2023-03-01T18:46:58;15.27;;;9.23;;
1410;SDS011;700;51.906;8.404;2023-03-01T18:51:59;12.20;;;7.90;;
1410;SDS011;700;51.906;8.404;2023-03-01T18:56:59;10.00;;;7.40;;
1410;SDS011;700;51.906;8.404;2023-03-01T19:02:00;10.43;;;8.10;;
1410;SDS011;700;51.906;8.404;2023-03-01T19:07:01;9.73;;;7.50;;
1410;SDS011;700;51.906;8.404;2023-03-01T19:12:01;12.57;;;7.80;;
1410;SDS011;700;51.906;8.404;2023-03-01T19:17:07;8.40;;;6.90;;
1410;SDS011;700;51.906;8.404;2023-03-01T19:22:08;8.60;;;6.87;;
1410;SDS011;700;51.906;8.404;2023-03-01T19:27:11;9.13;;;6.20;;
1410;SDS011;700;51.906;8.404;2023-03-01T19:32:14;10.27;;;6.27;;
1410;SDS011;700;51.906;8.404;2023-03-01T19:37:15;10.83;;;6.47;;
1410;SDS011;700;51.906;8.404;2023-03-01T19:42:15;6.90;;;5.50;;
1410;SDS011;700;51.906;8.404;2023-03-01T19:47:18;8.03;;;5.10;;
1410;SDS011;700;51.906;8.404;2023-03-01T19:52:21;14.50;;;6.37;;
1410;SDS011;700;51.906;8.404;2023-03-01T19:57:22;8.63;;;5.47;;
1410;SDS011;700;51.906;8.404;2023-03-01T20:02:25;9.20;;;5.30;;
1410;SDS011;700;51.906;8.404;2023-03-01T20:07:26;7.40;;;5.37;;
1410;SDS011;700;51.906;8.404;2023-03-01T20:12:26;9.00;;;6.03;;
1410;SDS011;700;51.906;8.404;2023-03-01T20:17:27;8.90;;;5.90;;
1410;SDS011;700;51.906;8.404;2023-03-01T20:22:27;8.70;;;6.13;;
1410;SDS011;700;51.906;8.404;2023-03-01T20:27:30;9.50;;;6.10;;
1410;SDS011;700;51.906;8.404;2023-03-01T20:32:31;11.30;;;6.07;;
1410;SDS011;700;51.906;8.404;2023-03-01T20:37:33;10.30;;;6.40;;
1410;SDS011;700;51.906;8.404;2023-03-01T20:42:33;8.40;;;5.17;;
1410;SDS011;700;51.906;8.404;2023-03-01T20:47:34;11.83;;;7.73;;
1410;SDS011;700;51.906;8.404;2023-03-01T20:52:34;8.80;;;6.23;;
1410;SDS011;700;51.906;8.404;2023-03-01T20:57:37;7.47;;;5.43;;
1410;SDS011;700;51.906;8.404;2023-03-01T21:02:41;9.20;;;6.40;;
1410;SDS011;700;51.906;8.404;2023-03-01T21:07:42;10.13;;;6.60;;
1410;SDS011;700;51.906;8.404;2023-03-01T21:12:44;12.80;;;7.90;;
1410;SDS011;700;51.906;8.404;2023-03-01T21:17:45;10.67;;;7.20;;
1410;SDS011;700;51.906;8.404;2023-03-01T21:22:47;10.57;;;6.90;;
1410;SDS011;700;51.906;8.404;2023-03-01T21:27:49;8.73;;;5.83;;
1410;SDS011;700;51.906;8.404;2023-03-01T21:32:55;9.40;;;6.70;;
1410;SDS011;700;51.906;8.404;2023-03-01T21:37:58;12.27;;;7.33;;
1410;SDS011;700;51.906;8.404;2023-03-01T21:42:58;9.50;;;7.00;;
1410;SDS011;700;51.906;8.404;2023-03-01T21:47:59;9.90;;;7.20;;
1410;SDS011;700;51.906;8.404;2023-03-01T21:52:59;13.63;;;8.50;;
1410;SDS011;700;51.906;8.404;2023-03-01T21:58:04;11.40;;;7.60;;
1410;SDS011;700;51.906;8.404;2023-03-01T22:03:10;11.77;;;8.00;;
1410;SDS011;700;51.906;8.404;2023-03-01T22:08:13;9.93;;;6.70;;
1410;SDS011;700;51.906;8.404;2023-03-01T22:13:16;9.40;;;6.80;;
1410;SDS011;700;51.906;8.404;2023-03-01T22:18:20;10.63;;;6.67;;
1410;SDS011;700;51.906;8.404;2023-03-01T22:23:23;9.33;;;5.97;;
1410;SDS011;700;51.906;8.404;2023-03-01T22:28:23;9.90;;;6.60;;
1410;SDS011;700;51.906;8.404;2023-03-01T22:33:24;12.20;;;7.53;;
1410;SDS011;700;51.906;8.404;2023-03-01T22:38:29;10.37;;;6.73;;
1410;SDS011;700;51.906;8.404;2023-03-01T22:43:33;8.60;;;6.63;;
1410;SDS011;700;51.906;8.404;2023-03-01T22:48:34;10.77;;;6.70;;
1410;SDS011;700;51.906;8.404;2023-03-01T22:53:34;10.20;;;5.73;;
1410;SDS011;700;51.906;8.404;2023-03-01T22:58:37;7.70;;;5.30;;
1410;SDS011;700;51.906;8.404;2023-03-01T23:03:38;9.93;;;6.07;;
1410;SDS011;700;51.906;8.404;2023-03-01T23:08:38;7.70;;;5.90;;
1410;SDS011;700;51.906;8.404;2023-03-01T23:13:41;11.20;;;5.67;;
1410;SDS011;700;51.906;8.404;2023-03-01T23:18:43;7.87;;;5.50;;
1410;SDS011;700;51.906;8.404;2023-03-01T23:23:47;9.13;;;5.70;;
1410;SDS011;700;51.906;8.404;2023-03-01T23:28:47;7.20;;;5.33;;
1410;SDS011;700;51.906;8.404;2023-03-01T23:33:50;7.60;;;5.23;;
1410;SDS011;700;51.906;8.404;2023-03-01T23:38:52;7.67;;;5.50;;
1410;SDS011;700;51.906;8.404;2023-03-01T23:43:57;6.73;;;5.23;;
1410;SDS011;700;51.906;8.404;2023-03-01T23:48:59;8.30;;;5.93;;
1410;SDS011;700;51.906;8.404;2023-03-01T23:54:00;8.27;;;5.33;;
1410;SDS011;700;51.906;8.404;2023-03-01T23:59:05;7.40;;;4.80;;
